Terminal Aerodrome Forecast
Issued by NWS Corpus Christi, TX

Home | Current Version | Previous Version | Text Only | Print | Product List | Glossary On
Versions: 1 2 3 4 5 6 7 8 9 10 11 12
395
FTUS44 KCRP 091120
TAFCRP
TAF
KCRP 091120Z 0912/1012 27006KT P6SM BKN250
     FM091700 31011G15KT P6SM FEW250
     FM100000 VRB04KT P6SM SKC=

USA.gov is the U.S. government's official web portal to all federal, state and local government web resources and services.